Time;durP1;ratioP1;P1;durP2;ratioP2;P2;SDS_P1;SDS_P2;PMS_P1;PMS_P2;Temp;Humidity;BMP_temperature;BMP_pressure;BME280_temperature;BME280_humidity;BME280_pressure;Samples;Min_cycle;Max_cycle;Signal;HPM_P1;HPM_P2
2023/10/04 00:02:55;;;;;;;14.18;6.53;;;;;;;14.47;100.00;100721.47;5589886;31;33871;-67
2023/10/04 00:05:59;;;;;;;12.20;5.87;;;;;;;14.47;100.00;100716.97;5589753;31;34511;-67
2023/10/04 00:09:03;;;;;;;9.70;5.75;;;;;;;14.53;100.00;100734.06;5589715;31;33847;-67
2023/10/04 00:12:08;;;;;;;14.50;6.05;;;;;;;14.53;100.00;100723.38;5590044;31;33920;-67
2023/10/04 00:15:12;;;;;;;13.05;5.80;;;;;;;14.56;100.00;100733.72;5589831;31;34716;-67
2023/10/04 00:18:16;;;;;;;15.57;5.85;;;;;;;14.57;100.00;100732.72;5589681;31;33878;-66
2023/10/04 00:21:19;;;;;;;9.90;5.50;;;;;;;14.60;100.00;100732.31;5589642;31;33997;-67
2023/10/04 00:24:22;;;;;;;21.25;6.00;;;;;;;14.63;100.00;100732.78;5589453;31;35110;-67
2023/10/04 00:27:25;;;;;;;16.48;5.60;;;;;;;14.82;100.00;100738.56;5575841;31;33931;-67
2023/10/04 00:30:29;;;;;;;11.38;5.35;;;;;;;14.83;100.00;100735.69;5589514;31;34540;-67
2023/10/04 00:33:32;;;;;;;14.73;5.75;;;;;;;14.92;100.00;100731.06;5589919;31;34571;-67
2023/10/04 00:36:35;;;;;;;15.65;5.80;;;;;;;14.85;100.00;100727.50;5575766;31;33767;-67
2023/10/04 00:39:38;;;;;;;14.40;5.80;;;;;;;14.80;100.00;100736.09;5589609;31;33853;-66
2023/10/04 00:42:42;;;;;;;14.25;5.57;;;;;;;14.69;100.00;100739.22;5589404;31;33843;-67
2023/10/04 00:45:49;;;;;;;13.93;5.82;;;;;;;14.57;100.00;100749.53;5589215;31;33802;-67
2023/10/04 00:48:56;;;;;;;17.73;6.15;;;;;;;14.51;100.00;100754.78;5576157;31;33864;-67
2023/10/04 00:52:01;;;;;;;17.48;6.10;;;;;;;14.50;100.00;100763.81;5589698;31;33883;-67
2023/10/04 00:55:06;;;;;;;20.75;5.82;;;;;;;14.53;100.00;100768.78;5589517;31;34773;-67
2023/10/04 00:58:11;;;;;;;12.00;5.20;;;;;;;14.48;100.00;100761.31;5589747;31;33865;-66
2023/10/04 01:01:14;;;;;;;13.75;5.70;;;;;;;14.53;100.00;100764.25;5576185;31;34017;-67
2023/10/04 01:04:17;;;;;;;14.87;5.75;;;;;;;14.41;100.00;100768.41;5589347;31;34508;-67
2023/10/04 01:07:21;;;;;;;17.60;5.95;;;;;;;14.38;100.00;100781.31;5589175;31;34241;-67
2023/10/04 01:10:34;;;;;;;16.62;6.05;;;;;;;14.31;100.00;100779.31;5589095;31;34465;-67
2023/10/04 01:13:38;;;;;;;16.80;5.75;;;;;;;14.25;100.00;100776.53;5589147;31;33806;-67
2023/10/04 01:16:41;;;;;;;14.80;5.90;;;;;;;14.24;100.00;100769.53;5589353;31;34467;-67
2023/10/04 01:19:44;;;;;;;16.67;5.75;;;;;;;14.15;100.00;100762.63;5588469;31;33812;-66
2023/10/04 01:22:47;;;;;;;16.37;5.95;;;;;;;14.14;100.00;100766.31;5589164;31;34035;-67
2023/10/04 01:25:50;;;;;;;29.45;6.45;;;;;;;14.11;100.00;100764.00;5588900;31;34069;-67
2023/10/04 01:28:55;;;;;;;12.30;6.20;;;;;;;14.12;100.00;100769.19;5575113;31;33719;-67
2023/10/04 01:31:59;;;;;;;13.50;5.65;;;;;;;14.15;100.00;100773.31;5589013;31;33791;-67
2023/10/04 01:35:02;;;;;;;16.42;6.30;;;;;;;14.13;100.00;100770.00;5589011;31;33419;-67
2023/10/04 01:38:08;;;;;;;12.77;6.20;;;;;;;14.06;100.00;100764.56;5588835;31;33950;-67
2023/10/04 01:41:10;;;;;;;15.73;6.28;;;;;;;14.02;100.00;100765.94;5588862;31;34023;-67
2023/10/04 01:44:14;;;;;;;12.85;5.90;;;;;;;13.93;100.00;100772.34;5574972;31;34569;-67
2023/10/04 01:47:19;;;;;;;14.57;5.97;;;;;;;13.86;100.00;100772.22;5588598;31;33819;-67
2023/10/04 01:50:24;;;;;;;17.42;6.20;;;;;;;13.77;100.00;100767.12;5588618;31;35323;-67
2023/10/04 01:53:27;;;;;;;16.00;6.20;;;;;;;13.69;100.00;100776.03;5588688;31;33918;-67
2023/10/04 01:56:30;;;;;;;16.77;6.30;;;;;;;13.64;100.00;100777.59;5588762;31;34066;-67
2023/10/04 01:59:33;;;;;;;17.73;6.87;;;;;;;13.59;100.00;100779.94;5588615;31;34450;-65
2023/10/04 02:02:40;;;;;;;15.60;6.70;;;;;;;13.98;100.00;100783.31;5588384;31;34475;-66
2023/10/04 02:05:44;;;;;;;12.32;6.32;;;;;;;14.48;100.00;100797.84;5588366;31;33845;-66
2023/10/04 02:08:47;;;;;;;14.80;6.72;;;;;;;14.94;100.00;100798.53;5588116;31;33923;-66
2023/10/04 02:11:50;;;;;;;15.45;6.18;;;;;;;15.05;100.00;100806.91;5588170;31;33878;-67
2023/10/04 02:14:53;;;;;;;16.45;6.68;;;;;;;15.20;100.00;100809.56;5588357;31;32474;-67
2023/10/04 02:17:58;;;;;;;26.58;6.45;;;;;;;15.59;100.00;100815.34;5588257;31;34046;-65
2023/10/04 02:21:01;;;;;;;21.55;7.03;;;;;;;15.86;100.00;100827.16;5588417;31;34501;-64
2023/10/04 02:24:08;;;;;;;16.95;5.82;;;;;;;16.24;100.00;100819.69;5588081;31;34055;-65
2023/10/04 02:27:11;;;;;;;19.37;5.65;;;;;;;16.65;100.00;100830.53;5588219;31;34014;-66
2023/10/04 02:30:26;;;;;;;18.02;5.87;;;;;;;16.94;100.00;100824.91;5588301;31;33900;-65
2023/10/04 02:33:33;;;;;;;15.95;4.70;;;;;;;16.98;100.00;100835.25;5578080;31;33812;-65
2023/10/04 02:36:37;;;;;;;14.50;4.35;;;;;;;17.14;100.00;100834.88;5590490;31;33779;-64
2023/10/04 02:39:40;;;;;;;12.57;4.18;;;;;;;17.19;100.00;100843.16;5590449;31;33899;-66
2023/10/04 02:42:47;;;;;;;20.75;4.15;;;;;;;17.19;100.00;100837.81;5590540;31;33809;-64
2023/10/04 02:45:52;;;;;;;12.48;4.10;;;;;;;17.18;100.00;100838.84;5590283;31;33751;-65
2023/10/04 02:48:56;;;;;;;11.48;4.07;;;;;;;17.15;100.00;100847.28;5590376;31;33875;-66
2023/10/04 02:51:59;;;;;;;12.70;4.10;;;;;;;17.27;100.00;100859.09;5590389;31;33956;-66
2023/10/04 02:55:03;;;;;;;10.75;4.22;;;;;;;17.25;100.00;100855.78;5590795;31;33805;-65
2023/10/04 02:58:08;;;;;;;11.60;3.62;;;;;;;17.24;100.00;100865.69;5590412;31;33948;-65
2023/10/04 03:01:20;;;;;;;12.13;3.58;;;;;;;17.26;100.00;100866.31;5590784;31;34014;-65
2023/10/04 03:04:24;;;;;;;10.50;4.05;;;;;;;17.28;100.00;100869.59;5590704;31;34498;-66
2023/10/04 03:07:27;;;;;;;10.25;3.90;;;;;;;17.26;100.00;100874.34;5590164;31;33890;-66
2023/10/04 03:10:33;;;;;;;7.68;3.40;;;;;;;17.29;100.00;100889.22;5576536;31;33831;-67
2023/10/04 03:13:38;;;;;;;10.27;3.50;;;;;;;17.26;100.00;100879.72;5590629;31;33968;-67
2023/10/04 03:16:42;;;;;;;6.62;3.40;;;;;;;17.29;100.00;100883.84;5590212;31;33894;-67
2023/10/04 03:19:47;;;;;;;6.03;3.15;;;;;;;17.33;100.00;100880.56;5576652;31;33776;-67
2023/10/04 03:22:55;;;;;;;7.12;2.97;;;;;;;17.42;100.00;100883.09;5590152;31;34518;-66
2023/10/04 03:26:01;;;;;;;8.98;3.25;;;;;;;17.62;100.00;100887.53;5590099;31;33837;-67
2023/10/04 03:29:04;;;;;;;6.05;2.72;;;;;;;17.69;100.00;100893.75;5590023;31;34414;-66
2023/10/04 03:32:09;;;;;;;7.55;3.00;;;;;;;17.75;100.00;100900.16;5590150;31;33893;-67
2023/10/04 03:35:14;;;;;;;9.60;2.85;;;;;;;17.77;100.00;100911.50;5590265;31;33759;-68
2023/10/04 03:38:20;;;;;;;6.53;2.90;;;;;;;17.73;100.00;100919.16;5576665;31;33905;-67
2023/10/04 03:41:23;;;;;;;10.90;3.12;;;;;;;17.77;100.00;100925.75;5575908;31;34611;-67
2023/10/04 03:44:27;;;;;;;4.93;2.75;;;;;;;17.81;100.00;100934.25;5576373;31;34475;-68
2023/10/04 03:47:33;;;;;;;5.85;2.40;;;;;;;17.90;100.00;100929.53;5589859;31;33852;-68
2023/10/04 03:50:38;;;;;;;8.73;2.37;;;;;;;17.92;100.00;100936.34;5589934;31;33913;-66
2023/10/04 03:53:44;;;;;;;10.27;2.55;;;;;;;17.85;100.00;100930.16;5576625;31;34819;-67
2023/10/04 03:56:47;;;;;;;11.30;2.58;;;;;;;17.91;100.00;100923.16;5590249;31;33926;-66
2023/10/04 03:59:51;;;;;;;8.10;2.55;;;;;;;17.87;100.00;100935.28;5589795;31;34764;-66
2023/10/04 04:02:54;;;;;;;13.05;2.50;;;;;;;17.84;100.00;100933.03;5589862;31;33778;-66
2023/10/04 04:05:58;;;;;;;7.05;2.00;;;;;;;17.76;100.00;100931.34;5589765;31;34491;-66
2023/10/04 04:09:06;;;;;;;12.90;2.50;;;;;;;17.76;100.00;100934.03;5589932;31;33872;-68
2023/10/04 04:12:09;;;;;;;8.98;2.00;;;;;;;17.84;100.00;100938.37;5589740;31;33898;-68
2023/10/04 04:15:23;;;;;;;4.35;2.15;;;;;;;17.73;100.00;100932.56;5590091;31;33830;-68
2023/10/04 04:18:29;;;;;;;9.35;2.00;;;;;;;17.75;100.00;100935.88;5589595;31;33876;-65
2023/10/04 04:21:33;;;;;;;6.35;1.83;;;;;;;17.73;100.00;100954.03;5589651;31;33948;-67
2023/10/04 04:24:37;;;;;;;5.43;2.15;;;;;;;17.75;100.00;100968.09;5589810;31;33915;-64
2023/10/04 04:27:44;;;;;;;4.15;1.80;;;;;;;17.68;100.00;100955.66;5589595;31;33957;-67
2023/10/04 04:30:47;;;;;;;4.32;1.90;;;;;;;17.63;100.00;100961.63;5589429;31;34092;-65
2023/10/04 04:33:51;;;;;;;3.22;1.73;;;;;;;17.56;100.00;100974.16;5575945;31;34538;-66
2023/10/04 04:36:55;;;;;;;6.75;1.85;;;;;;;17.53;100.00;100979.06;5589569;31;34554;-66
2023/10/04 04:39:58;;;;;;;7.60;1.80;;;;;;;17.56;100.00;100986.75;5589488;31;33786;-66
2023/10/04 04:43:49;;;;;;;11.70;1.90;;;;;;;17.53;100.00;100981.75;5589255;31;34131;-68
2023/10/04 04:46:26;;;;;;;4.05;1.70;;;;;;;17.58;100.00;100979.31;5578621;31;33808;-67
2023/10/04 04:49:29;;;;;;;4.47;1.60;;;;;;;17.57;100.00;100989.22;5589416;31;34639;-68
2023/10/04 04:52:33;;;;;;;6.85;1.70;;;;;;;17.51;100.00;100987.34;5588995;31;33800;-66
2023/10/04 04:55:36;;;;;;;15.18;1.95;;;;;;;17.56;100.00;100997.47;5589279;31;33785;-68
2023/10/04 04:58:41;;;;;;;7.70;1.92;;;;;;;17.56;100.00;100987.59;5589292;31;33898;-67
2023/10/04 05:01:44;;;;;;;12.23;1.77;;;;;;;17.53;100.00;100998.69;5588972;31;34084;-66
2023/10/04 05:04:50;;;;;;;2.87;1.52;;;;;;;17.52;100.00;101004.28;5589168;31;33446;-67
2023/10/04 05:07:53;;;;;;;7.37;1.50;;;;;;;17.50;100.00;101006.31;5589079;31;34527;-66
2023/10/04 05:10:57;;;;;;;5.50;1.80;;;;;;;17.44;100.00;100997.19;5589155;31;33907;-67
2023/10/04 05:14:00;;;;;;;3.20;1.50;;;;;;;17.46;100.00;100999.69;5589046;31;34545;-67
2023/10/04 05:17:04;;;;;;;4.72;1.75;;;;;;;17.42;100.00;101009.16;5588958;31;33840;-67
2023/10/04 05:20:13;;;;;;;7.12;1.90;;;;;;;17.38;100.00;101006.84;5588896;31;34778;-67
2023/10/04 05:23:17;;;;;;;3.97;1.50;;;;;;;17.36;100.00;101032.22;5589362;31;33883;-67
2023/10/04 05:26:20;;;;;;;7.78;1.60;;;;;;;17.35;100.00;101043.97;5588553;31;34728;-68
2023/10/04 05:29:23;;;;;;;4.72;1.65;;;;;;;17.37;100.00;101060.72;5588874;31;34078;-68
2023/10/04 05:32:26;;;;;;;6.25;1.70;;;;;;;17.37;100.00;101066.06;5588553;31;34501;-68
2023/10/04 05:35:29;;;;;;;5.05;1.45;;;;;;;17.37;100.00;101076.81;5588515;31;34176;-68
2023/10/04 05:38:33;;;;;;;3.87;1.35;;;;;;;17.36;100.00;101092.06;5588464;31;34010;-67
2023/10/04 05:41:36;;;;;;;6.47;1.80;;;;;;;17.37;100.00;101109.00;5575024;31;34572;-67
2023/10/04 05:44:39;;;;;;;3.55;1.58;;;;;;;17.37;100.00;101106.31;5588417;31;34491;-67
2023/10/04 05:47:43;;;;;;;5.80;1.80;;;;;;;17.29;100.00;101098.37;5574133;31;34489;-67
2023/10/04 05:50:49;;;;;;;8.98;1.62;;;;;;;17.34;100.00;101107.50;5574297;31;34018;-67
2023/10/04 05:53:52;;;;;;;6.32;1.48;;;;;;;17.29;100.00;101107.25;5588465;31;33887;-67
2023/10/04 05:56:57;;;;;;;8.60;1.90;;;;;;;17.21;100.00;101103.91;5588092;31;33775;-68
2023/10/04 06:00:00;;;;;;;2.90;1.60;;;;;;;17.17;100.00;101108.00;5587381;31;34192;-67
2023/10/04 06:03:13;;;;;;;6.85;1.48;;;;;;;17.15;100.00;101126.13;5587086;31;34185;-68
2023/10/04 06:06:16;;;;;;;5.22;1.80;;;;;;;17.06;100.00;101125.41;5589553;31;33780;-67
2023/10/04 06:09:28;;;;;;;6.45;1.77;;;;;;;17.07;100.00;101140.50;5590312;31;33824;-66
2023/10/04 06:12:31;;;;;;;8.80;1.90;;;;;;;17.08;100.00;101155.56;5590227;31;34051;-67
2023/10/04 06:15:35;;;;;;;8.73;1.80;;;;;;;17.12;100.00;101164.88;5590552;31;33966;-67
2023/10/04 06:18:41;;;;;;;5.62;1.60;;;;;;;17.18;100.00;101171.31;5590680;31;33775;-67
2023/10/04 06:21:49;;;;;;;5.25;2.00;;;;;;;17.25;100.00;101170.34;5590455;31;34651;-67
2023/10/04 06:24:53;;;;;;;11.35;1.58;;;;;;;17.16;100.00;101176.88;5590406;31;33839;-68
2023/10/04 06:27:56;;;;;;;9.00;1.80;;;;;;;17.25;100.00;101178.41;5590048;31;33839;-67
2023/10/04 06:31:02;;;;;;;6.70;1.55;;;;;;;17.28;98.31;101179.87;5576352;31;33955;-65
2023/10/04 06:34:05;;;;;;;5.07;1.60;;;;;;;17.16;97.58;101184.91;5590239;31;34025;-65
2023/10/04 06:37:09;;;;;;;3.53;1.62;;;;;;;17.34;95.08;101179.94;5590594;31;33900;-67
2023/10/04 06:40:15;;;;;;;6.50;1.90;;;;;;;17.16;95.53;101189.44;5590831;31;33795;-67
2023/10/04 06:43:19;;;;;;;7.25;1.80;;;;;;;17.20;92.25;101191.56;5589805;31;34470;-67
2023/10/04 06:46:22;;;;;;;11.27;2.10;;;;;;;17.25;92.40;101196.34;5576666;31;33833;-66
2023/10/04 06:49:25;;;;;;;8.57;2.00;;;;;;;17.35;93.45;101205.72;5589926;31;33906;-66
2023/10/04 06:52:28;;;;;;;8.98;1.60;;;;;;;16.95;90.89;101204.47;5576558;31;32170;-67
2023/10/04 06:55:33;;;;;;;7.75;1.75;;;;;;;16.87;89.97;101214.50;5590502;31;34859;-66
2023/10/04 06:58:37;;;;;;;5.95;1.60;;;;;;;17.02;90.39;101201.06;5590047;31;33783;-65
2023/10/04 07:01:40;;;;;;;8.10;1.83;;;;;;;16.89;89.95;101199.87;5589777;31;33746;-67
2023/10/04 07:04:43;;;;;;;6.82;1.65;;;;;;;16.92;91.39;101204.03;5589821;31;34006;-67
2023/10/04 07:07:48;;;;;;;11.25;1.70;;;;;;;16.89;89.27;101197.19;5589678;31;33819;-67
2023/10/04 07:10:52;;;;;;;5.07;1.73;;;;;;;17.04;89.83;101185.63;5589812;31;34163;-66
2023/10/04 07:13:55;;;;;;;6.90;1.77;;;;;;;16.72;91.21;101203.81;5590026;31;34968;-66
2023/10/04 07:16:58;;;;;;;5.50;1.60;;;;;;;16.90;90.44;101216.78;5589641;31;33795;-67
2023/10/04 07:20:00;;;;;;;3.90;1.60;;;;;;;16.62;92.71;101232.75;5590055;31;33789;-67
2023/10/04 07:23:07;;;;;;;9.18;2.00;;;;;;;16.75;93.16;101234.78;5589761;31;34001;-67
2023/10/04 07:26:11;;;;;;;5.15;1.52;;;;;;;16.77;94.34;101238.06;5589894;31;33900;-67
2023/10/04 07:29:14;;;;;;;8.40;2.17;;;;;;;16.62;97.42;101229.22;5589490;31;34037;-67
2023/10/04 07:32:17;;;;;;;4.95;1.60;;;;;;;16.61;98.60;101235.59;5589825;31;33898;-67
2023/10/04 07:35:25;;;;;;;5.90;1.50;;;;;;;16.51;100.00;101239.34;5589629;31;34201;-67
2023/10/04 07:38:28;;;;;;;3.75;1.52;;;;;;;16.44;100.00;101246.50;5589784;31;33855;-67
2023/10/04 07:41:31;;;;;;;2.78;1.37;;;;;;;16.51;100.00;101247.37;5589795;31;33895;-68
2023/10/04 07:44:34;;;;;;;6.35;1.52;;;;;;;16.41;100.00;101246.03;5575985;31;34635;-66
2023/10/04 07:47:38;;;;;;;5.87;1.55;;;;;;;16.94;98.35;101245.72;5589718;31;34468;-67
2023/10/04 07:50:40;;;;;;;3.58;1.50;;;;;;;16.84;100.00;101245.19;5589712;31;34474;-66
2023/10/04 07:53:43;;;;;;;3.90;1.50;;;;;;;17.05;98.11;101235.50;5589241;31;35339;-67
2023/10/04 07:56:48;;;;;;;3.08;1.65;;;;;;;16.88;99.76;101249.16;5589720;31;33768;-67
2023/10/04 07:59:51;;;;;;;3.08;1.30;;;;;;;17.21;95.96;101254.06;5589353;31;34838;-67
2023/10/04 08:02:57;;;;;;;5.28;1.40;;;;;;;18.51;81.55;101266.97;5575896;31;34078;-67
2023/10/04 08:06:08;;;;;;;10.02;1.48;;;;;;;18.60;79.54;101281.09;5589560;31;34138;-68
2023/10/04 08:09:11;;;;;;;4.20;1.35;;;;;;;18.27;83.87;101266.59;5589486;31;33987;-66
2023/10/04 08:12:15;;;;;;;9.55;1.70;;;;;;;18.46;81.24;101247.91;5589095;31;33909;-66
2023/10/04 08:15:21;;;;;;;10.38;1.85;;;;;;;18.45;81.34;101242.72;5575348;31;33771;-67
2023/10/04 08:18:25;;;;;;;9.93;1.50;;;;;;;18.11;82.48;101249.75;5588971;31;34530;-67
2023/10/04 08:21:28;;;;;;;6.65;1.42;;;;;;;17.42;90.87;101250.56;5589406;31;33863;-67
2023/10/04 08:24:31;;;;;;;5.90;1.30;;;;;;;17.19;96.18;101266.81;5589124;31;33808;-67
2023/10/04 08:27:34;;;;;;;6.72;1.70;;;;;;;16.92;100.00;101281.78;5588409;31;33794;-67
2023/10/04 08:30:40;;;;;;;7.40;1.85;;;;;;;17.78;91.61;101289.75;5588567;31;33839;-67
2023/10/04 08:33:43;;;;;;;3.70;1.58;;;;;;;17.90;88.61;101283.88;5589357;31;33904;-67
2023/10/04 08:36:47;;;;;;;4.07;1.42;;;;;;;17.23;95.57;101287.69;5589097;31;35503;-64
2023/10/04 08:39:49;;;;;;;6.57;1.70;;;;;;;17.06;99.18;101288.13;5588916;31;34607;-66
2023/10/04 08:42:53;;;;;;;7.68;1.50;;;;;;;17.31;98.25;101294.81;5589229;31;33760;-67
2023/10/04 08:45:56;;;;;;;5.22;1.52;;;;;;;17.23;98.10;101303.78;5588527;31;33816;-68
2023/10/04 08:49:02;;;;;;;4.72;1.60;;;;;;;17.66;95.24;101304.72;5588986;31;34252;-67
2023/10/04 08:52:14;;;;;;;4.90;1.70;;;;;;;17.90;92.14;101306.19;5588963;31;33824;-67
2023/10/04 08:55:22;;;;;;;7.12;1.80;;;;;;;18.04;92.13;101307.97;5588768;31;32730;-67
2023/10/04 08:58:26;;;;;;;4.50;1.62;;;;;;;18.05;92.19;101298.06;5588495;31;34324;-70
2023/10/04 09:01:30;;;;;;;7.97;1.87;;;;;;;17.63;93.18;101285.47;5589230;31;33953;-67
2023/10/04 09:04:36;;;;;;;4.20;1.62;;;;;;;17.57;95.87;101278.19;5588858;31;33725;-67
2023/10/04 09:07:39;;;;;;;2.75;1.60;;;;;;;17.50;98.47;101290.69;5588539;31;34777;-67
2023/10/04 09:10:43;;;;;;;5.97;1.55;;;;;;;17.56;95.53;101290.75;5588691;31;33990;-67
2023/10/04 09:13:49;;;;;;;4.15;1.60;;;;;;;17.64;95.20;101303.25;5588712;31;34097;-67
2023/10/04 09:17:07;;;;;;;11.50;1.73;;;;;;;17.83;94.10;101310.66;5588940;31;33924;-68
2023/10/04 09:20:11;;;;;;;39.00;3.10;;;;;;;18.00;92.75;101309.38;5588721;31;34537;-67
2023/10/04 09:23:16;;;;;;;6.12;1.65;;;;;;;17.98;96.26;101303.34;5588881;31;33877;-68
2023/10/04 09:26:19;;;;;;;5.07;1.90;;;;;;;18.18;92.50;101304.34;5588924;31;33850;-67
2023/10/04 09:29:36;;;;;;;4.60;1.45;;;;;;;18.32;85.45;101304.44;5588730;31;33890;-65
2023/10/04 09:32:40;;;;;;;5.50;1.55;;;;;;;18.26;83.70;101322.16;5575090;31;33846;-68
2023/10/04 09:35:44;;;;;;;6.10;1.80;;;;;;;18.26;81.11;101322.16;5588550;31;34009;-66
2023/10/04 09:39:06;;;;;;;7.80;1.80;;;;;;;18.47;79.46;101329.34;5574619;31;34031;-67
2023/10/04 09:42:14;;;;;;;7.22;1.80;;;;;;;18.57;78.80;101330.72;5588482;31;33995;-68
2023/10/04 09:45:21;;;;;;;5.40;1.70;;;;;;;18.93;76.25;101324.28;5588265;31;33849;-67
2023/10/04 09:48:26;;;;;;;5.80;1.45;;;;;;;18.97;74.31;101323.69;5588845;31;33922;-66
2023/10/04 09:51:29;;;;;;;5.12;1.48;;;;;;;18.90;75.77;101322.00;5588434;31;33730;-66
2023/10/04 09:54:34;;;;;;;4.93;1.70;;;;;;;19.10;74.28;101312.16;5588314;31;34038;-67
2023/10/04 09:57:41;;;;;;;3.45;1.98;;;;;;;19.41;73.49;101334.00;5588467;31;34009;-67
2023/10/04 10:00:46;;;;;;;6.00;1.60;;;;;;;19.60;70.25;101331.59;5588312;31;33769;-68
2023/10/04 10:03:57;;;;;;;3.92;1.50;;;;;;;19.77;67.46;101335.56;5576113;31;34044;-65
2023/10/04 10:07:09;;;;;;;6.00;2.00;;;;;;;19.55;69.21;101342.16;5588533;31;34558;-67
2023/10/04 10:10:16;;;;;;;17.60;2.28;;;;;;;19.58;69.14;101344.44;5588173;31;34818;-66
2023/10/04 10:13:20;;;;;;;6.30;1.87;;;;;;;19.43;70.09;101347.25;5588298;31;33784;-67
2023/10/04 10:16:24;;;;;;;3.80;1.80;;;;;;;19.20;71.18;101338.69;5587889;31;34054;-67
2023/10/04 10:19:29;;;;;;;3.90;1.80;;;;;;;19.07;70.42;101356.41;5574098;31;33768;-67
2023/10/04 10:22:32;;;;;;;7.78;1.87;;;;;;;19.07;70.99;101359.09;5589227;31;34859;-68
2023/10/04 10:25:38;;;;;;;3.55;1.55;;;;;;;19.46;69.07;101350.41;5587939;31;33991;-66
2023/10/04 10:28:41;;;;;;;6.30;1.67;;;;;;;19.51;67.20;101349.78;5588320;31;33862;-67
2023/10/04 10:31:53;;;;;;;5.45;1.60;;;;;;;19.31;67.92;101356.94;5587699;31;34576;-67
2023/10/04 10:35:00;;;;;;;8.07;1.90;;;;;;;19.14;69.46;101353.75;5587361;31;34018;-67
2023/10/04 10:38:41;;;;;;;10.43;1.98;;;;;;;19.27;68.55;101359.19;5587455;31;33978;-68
2023/10/04 10:41:48;;;;;;;4.03;1.42;;;;;;;19.53;67.90;101345.87;5570447;31;34957;-67
2023/10/04 10:45:24;;;;;;;13.00;1.70;;;;;;;19.62;66.65;101356.44;5573946;31;33084;-67
2023/10/04 10:48:33;;;;;;;8.07;2.00;;;;;;;19.98;66.20;101359.63;5587689;31;34520;-66
2023/10/04 10:51:42;;;;;;;7.22;1.80;;;;;;;20.55;62.60;101350.12;5587759;31;35266;-68
2023/10/04 10:54:45;;;;;;;8.27;1.65;;;;;;;20.72;59.46;101352.16;5590193;31;34268;-67
2023/10/04 10:57:51;;;;;;;8.65;1.90;;;;;;;19.94;61.78;101342.22;5590241;31;34679;-67
2023/10/04 11:00:56;;;;;;;7.43;2.10;;;;;;;19.86;63.35;101326.25;5590525;31;33892;-67
2023/10/04 11:03:59;;;;;;;9.32;1.70;;;;;;;19.73;64.37;101335.16;5589786;31;33984;-66
2023/10/04 11:07:06;;;;;;;6.93;2.03;;;;;;;19.01;64.99;101332.19;5590175;31;34203;-65
2023/10/04 11:10:13;;;;;;;8.18;1.80;;;;;;;19.53;62.34;101328.87;5590581;31;33988;-66
2023/10/04 11:13:18;;;;;;;8.15;1.80;;;;;;;21.05;57.27;101340.47;5589901;31;34118;-66
2023/10/04 11:16:21;;;;;;;7.43;2.08;;;;;;;22.19;51.54;101319.66;5589544;31;33822;-66
2023/10/04 11:19:24;;;;;;;8.77;2.55;;;;;;;22.93;49.55;101329.56;5589996;31;33909;-68
2023/10/04 11:22:28;;;;;;;6.18;2.10;;;;;;;22.61;49.16;101312.59;5589672;31;35024;-68
2023/10/04 11:25:31;;;;;;;6.03;1.73;;;;;;;24.58;44.90;101323.38;5577292;31;34228;-67
2023/10/04 11:28:36;;;;;;;10.60;1.75;;;;;;;24.91;42.84;101332.78;5590266;31;33836;-67
2023/10/04 11:31:40;;;;;;;11.02;1.60;;;;;;;25.75;40.74;101334.75;5576023;31;33871;-69
2023/10/04 11:34:48;;;;;;;5.25;1.70;;;;;;;25.73;40.26;101320.59;5589554;31;34580;-69
2023/10/04 11:37:51;;;;;;;10.00;1.73;;;;;;;24.89;40.81;101321.34;5589692;31;34587;-68
2023/10/04 11:40:53;;;;;;;8.73;1.60;;;;;;;24.21;42.54;101316.50;5589748;31;33872;-69
2023/10/04 11:44:02;;;;;;;6.55;1.75;;;;;;;24.87;41.15;101323.47;5589680;31;34020;-68
2023/10/04 11:47:08;;;;;;;5.77;1.47;;;;;;;24.76;40.73;101318.84;5589863;31;34743;-68
2023/10/04 11:50:15;;;;;;;11.45;1.70;;;;;;;24.02;41.67;101323.88;5589810;31;33920;-67
2023/10/04 11:53:49;;;;;;;10.15;1.75;;;;;;;24.48;40.83;101314.19;5575785;31;34789;-68
2023/10/04 11:56:53;;;;;;;6.87;1.90;;;;;;;25.70;38.73;101312.09;5564556;31;34497;-67
2023/10/04 11:59:56;;;;;;;5.10;1.50;;;;;;;24.37;40.49;101313.09;5589871;31;34247;-68
2023/10/04 12:02:59;;;;;;;6.45;1.70;;;;;;;22.51;43.69;101305.00;5589442;31;34494;-68
2023/10/04 12:06:03;;;;;;;4.93;1.27;;;;;;;23.93;42.16;101310.91;5589011;31;33798;-66
2023/10/04 12:09:07;;;;;;;5.70;1.48;;;;;;;24.96;39.25;101312.00;5590032;31;34032;-67
2023/10/04 12:12:16;;;;;;;6.40;1.50;;;;;;;28.18;35.20;101320.78;5589799;31;33969;-67
2023/10/04 12:15:19;;;;;;;4.82;1.70;;;;;;;27.58;34.50;101319.97;5589388;31;34122;-68
2023/10/04 12:18:22;;;;;;;8.60;1.60;;;;;;;26.67;35.81;101315.28;5589828;31;34060;-67
2023/10/04 12:21:24;;;;;;;3.55;1.70;;;;;;;26.59;35.11;101318.44;5589400;31;34508;-66
2023/10/04 12:24:30;;;;;;;3.45;1.48;;;;;;;24.79;37.04;101326.50;5589198;31;34187;-67
2023/10/04 12:27:33;;;;;;;11.32;1.90;;;;;;;23.98;38.47;101319.16;5589315;31;34720;-67
2023/10/04 12:30:36;;;;;;;4.18;1.50;;;;;;;23.02;40.69;101319.25;5589552;31;33898;-69
2023/10/04 12:33:39;;;;;;;8.23;1.73;;;;;;;22.53;41.75;101319.13;5589187;31;33855;-68
2023/10/04 12:36:44;;;;;;;14.63;1.83;;;;;;;22.02;43.57;101314.00;5575713;31;33817;-67
2023/10/04 12:39:57;;;;;;;8.45;1.80;;;;;;;21.42;45.31;101311.87;5589658;31;33921;-68
2023/10/04 12:43:01;;;;;;;8.77;1.60;;;;;;;21.13;46.50;101315.94;5575719;31;34511;-69
2023/10/04 12:46:03;;;;;;;4.80;1.90;;;;;;;21.62;45.89;101313.41;5588946;31;34017;-67
2023/10/04 12:49:07;;;;;;;38.50;2.45;;;;;;;20.76;47.49;101328.31;5589422;31;34499;-66
2023/10/04 12:52:10;;;;;;;8.32;1.90;;;;;;;20.11;48.67;101308.44;5575914;31;33937;-68
2023/10/04 12:55:14;;;;;;;3.00;1.45;;;;;;;20.79;48.53;101319.78;5575655;31;34768;-67
2023/10/04 12:58:20;;;;;;;11.02;2.20;;;;;;;20.80;48.36;101310.66;5575492;31;34690;-66
2023/10/04 13:01:24;;;;;;;5.62;1.65;;;;;;;20.12;50.00;101315.50;5589125;31;34001;-67
2023/10/04 13:04:27;;;;;;;9.23;2.00;;;;;;;19.98;50.61;101305.78;5589093;31;33816;-67
2023/10/04 13:07:32;;;;;;;7.00;1.80;;;;;;;20.23;50.60;101314.06;5588928;31;33807;-67
2023/10/04 13:10:39;;;;;;;7.07;1.73;;;;;;;19.71;52.18;101320.22;5589238;31;34014;-66
2023/10/04 13:13:43;;;;;;;5.65;1.40;;;;;;;19.58;51.63;101302.19;5588491;31;33967;-66
2023/10/04 13:16:47;;;;;;;9.48;2.12;;;;;;;19.45;51.63;101313.78;5588573;31;34055;-67
2023/10/04 13:19:51;;;;;;;7.55;1.45;;;;;;;19.35;52.28;101309.78;5575335;31;35219;-66
2023/10/04 13:22:55;;;;;;;4.05;1.60;;;;;;;19.27;53.11;101312.63;5588942;31;33872;-67
2023/10/04 13:25:58;;;;;;;11.15;1.90;;;;;;;19.01;53.18;101305.31;5588826;31;34090;-66
2023/10/04 13:29:02;;;;;;;7.85;1.60;;;;;;;19.16;53.38;101308.69;5574903;31;33870;-64
2023/10/04 13:32:07;;;;;;;8.55;1.80;;;;;;;18.70;53.50;101295.00;5588453;31;33834;-66
2023/10/04 13:35:09;;;;;;;3.67;1.67;;;;;;;18.81;54.09;101321.34;5588874;31;33797;-69
2023/10/04 13:38:17;;;;;;;6.55;1.98;;;;;;;18.72;54.92;101329.75;5588608;31;33865;-68
2023/10/04 13:41:21;;;;;;;7.40;1.70;;;;;;;18.75;55.11;101334.72;5574598;31;34570;-66
2023/10/04 13:44:25;;;;;;;4.30;1.58;;;;;;;18.69;55.54;101332.84;5588419;31;33925;-67
2023/10/04 13:47:28;;;;;;;3.85;1.60;;;;;;;18.76;53.66;101329.16;5588316;31;34097;-67
2023/10/04 13:50:32;;;;;;;5.12;1.48;;;;;;;18.73;53.86;101332.25;5588504;31;34398;-67
2023/10/04 13:53:37;;;;;;;3.72;1.40;;;;;;;18.71;54.02;101331.63;5574607;31;34936;-66
2023/10/04 13:56:42;;;;;;;6.53;1.45;;;;;;;18.56;55.12;101338.97;5588501;31;33869;-67
2023/10/04 13:59:45;;;;;;;10.02;1.65;;;;;;;18.32;56.35;101332.13;5588168;31;34373;-67
2023/10/04 14:02:55;;;;;;;7.25;1.62;;;;;;;18.27;56.75;101339.94;5574259;31;34656;-66
2023/10/04 14:06:06;;;;;;;;;;;;;;;18.18;57.51;101352.69;5574462;31;34014;-66
2023/10/04 14:09:15;;;;;;;23.87;2.35;;;;;;;17.92;58.37;101368.56;5588273;31;34765;-64
2023/10/04 14:12:20;;;;;;;8.00;1.50;;;;;;;17.75;60.21;101362.63;5574620;31;33924;-68
2023/10/04 14:15:25;;;;;;;13.48;1.87;;;;;;;17.58;61.81;101355.78;5587800;31;33955;-67